Time;durP1;ratioP1;P1;durP2;ratioP2;P2;SDS_P1;SDS_P2;PMS_P1;PMS_P2;Temp;Humidity;BMP_temperature;BMP_pressure;BME280_temperature;BME280_humidity;BME280_pressure;Samples;Min_cycle;Max_cycle;Signal;HPM_P1;HPM_P2
2020/12/27 00:02:13;;;;;;;23.23;5.85;;;;;;;5.40;92.65;99116.66;5012570;28;20087;-82
2020/12/27 00:04:38;;;;;;;16.48;6.15;;;;;;;5.40;92.64;99094.22;5014871;28;20032;-82
2020/12/27 00:07:11;;;;;;;18.17;4.50;;;;;;;5.39;92.81;99119.63;5014400;28;20025;-82
2020/12/27 00:09:36;;;;;;;;;;;;;;;5.42;92.83;99105.56;5015693;28;20071;-81
2020/12/27 00:12:01;;;;;;;10.77;5.10;;;;;;;5.39;92.79;99101.53;5030995;28;19940;-82
2020/12/27 00:14:27;;;;;;;16.80;4.90;;;;;;;5.40;92.75;99096.91;5004652;28;20428;-81
2020/12/27 00:16:52;;;;;;;16.67;5.15;;;;;;;5.40;92.83;99107.72;5014098;28;20028;-82
2020/12/27 00:19:18;;;;;;;24.75;5.90;;;;;;;5.43;92.57;99080.13;4998412;28;20026;-83
2020/12/27 00:21:43;;;;;;;14.73;4.78;;;;;;;5.45;92.43;99088.78;5013787;28;20033;-82
2020/12/27 00:24:08;;;;;;;16.95;4.68;;;;;;;5.46;92.52;99079.59;5032189;28;20064;-83
2020/12/27 00:26:34;;;;;;;23.08;5.00;;;;;;;5.48;92.52;99055.78;5014069;28;20079;-82
2020/12/27 00:28:59;;;;;;;13.05;4.70;;;;;;;5.49;92.48;99073.63;4999042;28;20024;-83
2020/12/27 00:31:25;;;;;;;16.20;5.80;;;;;;;5.49;92.41;99063.63;5018851;28;20057;-82
2020/12/27 00:33:50;;;;;;;15.40;4.82;;;;;;;5.52;92.36;99043.34;5014612;28;20025;-84
2020/12/27 00:36:20;;;;;;;13.13;4.85;;;;;;;5.53;92.25;99042.22;5013641;28;20029;-82
2020/12/27 00:38:45;;;;;;;18.60;6.13;;;;;;;5.51;92.17;99066.03;5014829;28;20052;-82
2020/12/27 00:41:11;;;;;;;25.38;5.78;;;;;;;5.52;92.40;99024.41;5013942;28;20025;-82
2020/12/27 00:43:37;;;;;;;15.73;5.20;;;;;;;5.52;92.41;99021.72;5014694;28;20025;-82
2020/12/27 00:46:02;;;;;;;20.08;6.03;;;;;;;5.53;92.22;99036.81;5031238;28;20052;-83
2020/12/27 00:48:29;;;;;;;13.50;5.70;;;;;;;5.55;92.20;99015.72;5014406;28;20026;-82
2020/12/27 00:50:54;;;;;;;15.65;4.78;;;;;;;5.54;92.12;99019.53;5012662;28;20017;-83
2020/12/27 00:53:20;;;;;;;19.58;6.10;;;;;;;5.58;92.05;99017.88;5014568;28;20026;-83
2020/12/27 00:55:45;;;;;;;14.00;5.03;;;;;;;5.60;91.74;98996.78;5031424;28;20029;-82
2020/12/27 00:58:10;;;;;;;13.55;5.18;;;;;;;5.61;91.57;98984.84;5014228;28;20025;-82
2020/12/27 01:00:36;;;;;;;14.00;5.45;;;;;;;5.62;91.53;98974.84;5016495;28;20026;-83
2020/12/27 01:03:01;;;;;;;17.13;5.82;;;;;;;5.65;91.59;99001.34;5017459;28;20524;-82
2020/12/27 01:05:26;;;;;;;26.60;4.93;;;;;;;5.64;91.50;98984.28;5035952;28;20033;-83
2020/12/27 01:07:52;;;;;;;19.60;5.40;;;;;;;5.64;91.53;98980.78;5018942;28;20033;-82
2020/12/27 01:10:17;;;;;;;15.20;5.65;;;;;;;5.65;91.18;98967.00;5025295;28;20021;-81
2020/12/27 01:12:44;;;;;;;14.65;4.07;;;;;;;5.67;90.98;98955.88;5029030;28;20029;-83
2020/12/27 01:15:11;;;;;;;17.38;5.03;;;;;;;5.65;91.11;98977.81;5043879;28;20017;-82
2020/12/27 01:17:37;;;;;;;15.27;5.60;;;;;;;5.66;91.13;98948.88;5023111;28;20036;-83
2020/12/27 01:20:02;;;;;;;10.13;4.05;;;;;;;5.68;90.93;98952.91;5018067;28;20029;-81
2020/12/27 01:22:32;;;;;;;14.70;4.80;;;;;;;5.69;90.93;98957.19;5017034;28;20045;-83
2020/12/27 01:24:57;;;;;;;18.63;4.47;;;;;;;5.70;91.02;98945.31;5027348;28;20475;-81
2020/12/27 01:27:22;;;;;;;16.67;6.18;;;;;;;5.70;90.66;98936.38;5033422;28;20044;-82
2020/12/27 01:29:48;;;;;;;22.00;5.18;;;;;;;5.69;91.08;98932.88;5017770;28;20030;-82
2020/12/27 01:32:13;;;;;;;11.85;5.43;;;;;;;5.69;90.72;98932.88;5034476;28;20474;-83
2020/12/27 01:34:38;;;;;;;15.80;5.22;;;;;;;5.70;90.83;98915.56;5035542;28;20028;-83
2020/12/27 01:37:04;;;;;;;14.43;6.28;;;;;;;5.71;90.71;98946.91;5033528;28;20017;-82
2020/12/27 01:39:29;;;;;;;13.38;5.88;;;;;;;5.72;90.61;98909.88;5035324;28;20033;-81
2020/12/27 01:41:55;;;;;;;19.17;7.63;;;;;;;5.75;90.47;98896.56;5034444;28;20029;-80
2020/12/27 01:44:20;;;;;;;15.02;5.32;;;;;;;5.76;90.31;98911.72;5035133;28;20032;-79
2020/12/27 01:46:46;;;;;;;18.38;6.20;;;;;;;5.74;90.55;98889.56;5016512;28;20438;-81
2020/12/27 01:49:12;;;;;;;20.35;6.88;;;;;;;5.74;90.68;98878.75;5035017;28;20505;-79
2020/12/27 01:51:38;;;;;;;24.25;7.18;;;;;;;5.73;90.84;98896.06;5034112;28;20109;-80
2020/12/27 01:54:03;;;;;;;16.00;7.28;;;;;;;5.71;90.84;98919.88;5034933;28;20072;-82
2020/12/27 01:56:39;;;;;;;24.15;7.68;;;;;;;5.72;90.60;98878.22;5015816;28;20028;-80
2020/12/27 01:59:28;;;;;;;14.82;6.93;;;;;;;5.68;90.67;98858.28;5012732;28;20029;-81
2020/12/27 02:01:53;;;;;;;15.40;6.57;;;;;;;5.66;90.87;98879.38;5010141;28;20033;-78
2020/12/27 02:04:19;;;;;;;16.15;6.90;;;;;;;5.64;91.27;98886.97;5034789;28;20029;-79
2020/12/27 02:06:45;;;;;;;13.88;6.40;;;;;;;5.61;91.06;98833.50;5033889;28;20355;-80
2020/12/27 02:09:12;;;;;;;18.13;6.78;;;;;;;5.59;91.37;98816.75;5034995;28;20056;-81
2020/12/27 02:11:37;;;;;;;16.95;7.10;;;;;;;5.60;91.32;98850.00;5015931;28;20091;-81
2020/12/27 02:14:03;;;;;;;18.30;6.53;;;;;;;5.61;91.22;98805.66;5013277;28;20037;-81
2020/12/27 02:16:29;;;;;;;24.45;7.57;;;;;;;5.60;91.54;98858.13;4999063;28;20033;-79
2020/12/27 02:19:01;;;;;;;16.95;7.65;;;;;;;5.60;91.26;98812.16;5017001;28;20027;-80
2020/12/27 02:21:27;;;;;;;17.27;7.55;;;;;;;5.61;91.17;98817.28;5015698;28;20036;-80
2020/12/27 02:24:01;;;;;;;19.00;7.10;;;;;;;5.61;91.23;98806.47;4998687;28;20045;-80
2020/12/27 02:26:26;;;;;;;16.05;6.78;;;;;;;5.62;91.39;98797.28;5033809;28;20021;-80
2020/12/27 02:28:52;;;;;;;15.75;7.15;;;;;;;5.59;91.08;98819.44;5016618;28;20028;-80
2020/12/27 02:31:24;;;;;;;14.95;6.18;;;;;;;5.59;91.31;98805.94;5016857;28;20120;-80
2020/12/27 02:33:49;;;;;;;15.20;6.93;;;;;;;5.56;91.14;98791.13;5000519;28;20114;-79
2020/12/27 02:36:16;;;;;;;25.17;7.30;;;;;;;5.56;90.98;98765.97;5016680;28;20013;-82
2020/12/27 02:38:41;;;;;;;13.05;7.38;;;;;;;5.54;91.29;98770.91;4999896;28;20471;-80
2020/12/27 02:41:14;;;;;;;21.08;7.70;;;;;;;5.50;91.15;98769.84;5033924;28;20034;-80
2020/12/27 02:43:40;;;;;;;19.85;7.70;;;;;;;5.51;91.15;98774.97;5033400;28;20040;-80
2020/12/27 02:46:09;;;;;;;15.18;5.63;;;;;;;5.48;91.16;98758.50;5034020;28;20029;-80
2020/12/27 02:48:34;;;;;;;15.95;6.70;;;;;;;5.45;90.95;98749.09;4996307;28;20037;-79
2020/12/27 02:50:59;;;;;;;21.42;5.47;;;;;;;5.46;91.42;98776.94;5012528;28;20029;-80
2020/12/27 02:53:25;;;;;;;10.98;6.55;;;;;;;5.45;91.35;98764.50;5033087;28;20034;-80
2020/12/27 02:55:50;;;;;;;15.02;6.03;;;;;;;5.45;91.21;98737.47;5015969;28;20030;-80
2020/12/27 02:58:15;;;;;;;19.70;7.53;;;;;;;5.45;91.23;98761.81;5018088;28;20130;-80
2020/12/27 03:00:41;;;;;;;15.52;7.30;;;;;;;5.43;91.38;98710.78;5016167;28;20083;-81
2020/12/27 03:03:06;;;;;;;20.50;6.40;;;;;;;5.45;91.22;98761.81;5032075;28;20021;-81
2020/12/27 03:05:32;;;;;;;17.80;7.63;;;;;;;5.44;91.18;98735.88;5016115;28;20025;-80
2020/12/27 03:07:57;;;;;;;14.52;7.20;;;;;;;5.46;91.05;98717.50;5032702;28;20479;-81
2020/12/27 03:10:22;;;;;;;9.88;5.47;;;;;;;5.46;90.99;98701.28;5033771;28;20037;-79
2020/12/27 03:12:48;;;;;;;13.88;6.57;;;;;;;5.46;91.10;98701.28;5032826;28;20036;-80
2020/12/27 03:15:13;;;;;;;25.35;7.65;;;;;;;5.43;90.97;98699.97;5033221;28;21348;-80
2020/12/27 03:17:39;;;;;;;15.80;6.43;;;;;;;5.42;90.98;98700.25;5031407;28;20033;-80
2020/12/27 03:20:04;;;;;;;17.20;7.00;;;;;;;5.40;91.09;98745.66;5015618;28;20049;-79
2020/12/27 03:22:30;;;;;;;18.73;5.15;;;;;;;5.38;91.31;98685.72;5031816;28;20051;-81
2020/12/27 03:24:55;;;;;;;16.48;5.15;;;;;;;5.32;91.42;98687.69;5022879;28;20026;-81
2020/12/27 03:27:21;;;;;;;15.20;4.72;;;;;;;5.31;91.52;98683.34;5032181;28;20068;-81
2020/12/27 03:29:46;;;;;;;25.70;7.43;;;;;;;5.29;91.54;98691.78;5015728;28;20032;-82
2020/12/27 03:32:11;;;;;;;11.60;5.20;;;;;;;5.27;91.66;98683.16;5014596;28;20415;-81
2020/12/27 03:34:37;;;;;;;11.02;4.55;;;;;;;5.26;91.80;98637.50;5033182;28;20072;-81
2020/12/27 03:37:03;;;;;;;17.92;5.90;;;;;;;5.25;91.95;98636.69;5032813;28;20044;-80
2020/12/27 03:39:28;;;;;;;12.05;5.20;;;;;;;5.27;91.79;98682.34;5025668;28;20029;-80
2020/12/27 03:41:54;;;;;;;14.70;5.03;;;;;;;5.24;91.80;98629.69;5032693;28;20036;-79
2020/12/27 03:44:19;;;;;;;17.48;4.82;;;;;;;5.24;91.92;98681.03;5032238;28;20100;-81
2020/12/27 03:46:45;;;;;;;13.52;7.35;;;;;;;5.26;91.75;98649.09;5015332;28;20032;-80
2020/12/27 03:49:10;;;;;;;14.98;7.20;;;;;;;5.27;91.90;98685.84;5026482;28;20043;-80
2020/12/27 03:51:35;;;;;;;13.50;7.38;;;;;;;5.30;91.85;98649.34;4998904;28;20021;-81
2020/12/27 03:54:02;;;;;;;27.70;7.35;;;;;;;5.31;91.81;98640.94;5025315;28;20029;-80
2020/12/27 03:56:27;;;;;;;13.45;7.05;;;;;;;5.33;91.63;98646.06;5011718;28;20502;-81
2020/12/27 03:58:53;;;;;;;18.48;6.22;;;;;;;5.34;91.58;98628.75;5008709;28;20041;-80
2020/12/27 04:01:18;;;;;;;18.17;7.60;;;;;;;5.36;91.45;98623.06;5028844;28;20087;-80
2020/12/27 04:03:44;;;;;;;17.10;7.32;;;;;;;5.33;91.24;98627.16;5031599;28;20033;-80
2020/12/27 04:06:09;;;;;;;15.95;6.25;;;;;;;5.32;91.35;98639.84;5032561;28;20025;-80
2020/12/27 04:08:34;;;;;;;14.77;6.80;;;;;;;5.31;91.00;98611.22;5031008;28;20091;-80
2020/12/27 04:11:00;;;;;;;12.90;5.25;;;;;;;5.30;91.67;98617.72;5032642;28;20386;-80
2020/12/27 04:13:27;;;;;;;23.42;7.53;;;;;;;5.32;91.55;98609.34;5024769;28;20044;-80
2020/12/27 04:15:52;;;;;;;20.13;6.47;;;;;;;5.33;91.64;98590.13;4995207;28;20367;-81
2020/12/27 04:18:17;;;;;;;14.00;7.18;;;;;;;5.34;91.36;98597.13;5009356;28;20032;-79
2020/12/27 04:20:43;;;;;;;23.77;7.30;;;;;;;5.38;91.25;98561.44;5001141;28;20030;-80
2020/12/27 04:23:09;;;;;;;10.13;7.07;;;;;;;5.39;91.31;98604.34;5030968;28;20052;-79
2020/12/27 04:25:34;;;;;;;19.67;7.38;;;;;;;5.41;91.09;98612.97;5032221;28;20025;-79
2020/12/27 04:27:59;;;;;;;24.08;8.48;;;;;;;5.39;90.97;98571.13;5031410;28;20026;-79
2020/12/27 04:30:25;;;;;;;12.50;6.85;;;;;;;5.37;91.08;98535.50;5032353;28;20034;-81
2020/12/27 04:32:50;;;;;;;17.42;7.22;;;;;;;5.37;91.15;98551.69;5031395;28;20029;-80
2020/12/27 04:35:15;;;;;;;14.55;8.20;;;;;;;5.39;91.13;98528.72;5018495;28;20474;-79
2020/12/27 04:37:41;;;;;;;20.60;8.45;;;;;;;5.39;91.08;98553.03;5016183;28;20032;-79
2020/12/27 04:40:06;;;;;;;26.60;9.07;;;;;;;5.40;91.22;98524.91;5018587;28;20383;-80
2020/12/27 04:42:32;;;;;;;18.42;8.48;;;;;;;5.42;90.94;98562.44;5002210;28;20027;-80
2020/12/27 04:44:57;;;;;;;17.85;8.18;;;;;;;5.41;90.74;98539.22;5017703;28;20029;-80
2020/12/27 04:47:23;;;;;;;22.98;8.77;;;;;;;5.41;90.89;98526.50;5001950;28;20026;-79
2020/12/27 04:49:49;;;;;;;18.08;7.90;;;;;;;5.42;91.22;98527.31;5035419;28;20056;-80
2020/12/27 04:52:14;;;;;;;15.50;7.60;;;;;;;5.43;91.28;98542.41;5002157;28;20033;-81
2020/12/27 04:54:39;;;;;;;21.40;8.30;;;;;;;5.43;91.08;98523.50;5001521;28;20037;-80
2020/12/27 04:57:05;;;;;;;20.48;10.55;;;;;;;5.40;91.04;98513.28;5018382;28;20387;-80
2020/12/27 04:59:30;;;;;;;19.45;9.05;;;;;;;5.40;91.21;98518.69;5017285;28;20033;-79
2020/12/27 05:01:56;;;;;;;20.42;6.95;;;;;;;5.35;91.28;98506.09;5034833;28;20021;-79
2020/12/27 05:04:26;;;;;;;23.85;8.90;;;;;;;5.36;91.25;98496.09;5035023;28;20541;-80
2020/12/27 05:06:55;;;;;;;24.38;9.35;;;;;;;5.38;91.18;98510.09;4999178;28;20105;-79
2020/12/27 05:09:32;;;;;;;16.60;10.15;;;;;;;5.38;91.39;98477.69;5011498;28;20030;-80
2020/12/27 05:11:58;;;;;;;24.65;8.50;;;;;;;5.37;91.17;98484.16;5035848;28;20025;-79
2020/12/27 05:14:27;;;;;;;18.05;7.85;;;;;;;5.37;91.40;98527.38;5034870;28;20026;-80
2020/12/27 05:16:53;;;;;;;19.73;9.18;;;;;;;5.39;91.22;98468.47;5000760;28;20029;-80
2020/12/27 05:19:20;;;;;;;22.70;9.25;;;;;;;5.36;91.33;98563.63;5035032;28;20029;-81
2020/12/27 05:21:46;;;;;;;18.75;9.20;;;;;;;5.38;91.16;98558.72;4998787;28;20030;-80
2020/12/27 05:24:18;;;;;;;20.88;9.02;;;;;;;5.39;91.13;98506.28;4993596;28;20046;-80
2020/12/27 05:26:44;;;;;;;19.20;6.75;;;;;;;5.39;91.08;98484.69;4998322;28;20360;-81
2020/12/27 05:29:10;;;;;;;17.05;7.78;;;;;;;5.32;91.13;98441.84;5016727;28;20028;-79
2020/12/27 05:31:39;;;;;;;17.75;7.20;;;;;;;5.27;91.35;98496.75;4996451;28;20026;-80
2020/12/27 05:34:06;;;;;;;15.77;6.30;;;;;;;5.23;91.30;98493.03;5001285;28;20111;-79
2020/12/27 05:36:32;;;;;;;13.93;7.20;;;;;;;5.22;91.24;98474.44;5027397;28;20025;-80
2020/12/27 05:38:58;;;;;;;16.27;6.13;;;;;;;5.21;91.31;98476.34;5000653;28;20025;-81
2020/12/27 05:41:27;;;;;;;12.38;6.03;;;;;;;5.22;91.57;98487.94;5017543;28;20105;-80
2020/12/27 05:44:02;;;;;;;19.95;6.63;;;;;;;5.21;91.33;98452.03;5033390;28;20100;-80
2020/12/27 05:46:29;;;;;;;27.17;6.60;;;;;;;5.25;91.45;98436.81;4997557;28;20030;-81
2020/12/27 05:48:55;;;;;;;22.50;7.78;;;;;;;5.30;91.59;98449.44;4994856;28;20033;-81
2020/12/27 05:51:21;;;;;;;13.93;6.05;;;;;;;5.36;91.22;98453.66;5021332;28;20071;-81
2020/12/27 05:53:49;;;;;;;24.77;6.75;;;;;;;5.36;91.08;98448.25;5017050;28;20021;-80
2020/12/27 05:56:15;;;;;;;11.93;6.25;;;;;;;5.35;90.86;98449.34;5001079;28;20039;-81
2020/12/27 05:58:40;;;;;;;17.27;5.97;;;;;;;5.36;90.75;98447.44;4999950;28;20471;-81
2020/12/27 06:01:06;;;;;;;17.98;5.28;;;;;;;5.37;90.32;98459.84;4984631;28;20037;-80
2020/12/27 06:03:31;;;;;;;16.15;5.38;;;;;;;5.38;90.92;98423.66;5016611;28;20463;-80
2020/12/27 06:06:08;;;;;;;14.20;6.00;;;;;;;5.38;90.78;98469.56;5000597;28;20026;-80
2020/12/27 06:09:01;;;;;;;17.33;5.55;;;;;;;5.40;90.50;98402.53;5034148;28;20029;-82
2020/12/27 06:11:47;;;;;;;13.93;4.70;;;;;;;5.38;90.76;98413.63;5034701;28;20022;-81
2020/12/27 06:14:16;;;;;;;16.83;4.70;;;;;;;5.39;90.65;98403.63;4989543;28;20033;-81
2020/12/27 06:16:44;;;;;;;13.65;5.38;;;;;;;5.43;90.64;98420.84;5034430;28;20075;-82
2020/12/27 06:19:24;;;;;;;14.77;6.32;;;;;;;5.43;90.49;98393.81;5033969;28;20068;-82
2020/12/27 06:22:03;;;;;;;15.02;5.00;;;;;;;5.44;90.48;98406.25;5034761;28;20033;-80
2020/12/27 06:24:29;;;;;;;14.18;5.75;;;;;;;5.47;90.51;98397.53;4963903;28;20100;-81
2020/12/27 06:26:54;;;;;;;14.48;5.85;;;;;;;5.48;90.27;98396.41;4997411;28;20066;-81
2020/12/27 06:29:20;;;;;;;7.47;4.78;;;;;;;5.48;90.28;98380.22;4977385;28;20042;-81
2020/12/27 06:31:47;;;;;;;11.80;4.03;;;;;;;5.48;90.35;98423.44;5008016;28;20030;-81
2020/12/27 06:34:12;;;;;;;11.05;4.03;;;;;;;5.48;90.43;98415.34;5001953;28;20227;-81
2020/12/27 06:36:38;;;;;;;9.32;4.20;;;;;;;5.46;90.16;98396.75;5027509;28;20041;-79
2020/12/27 06:39:22;;;;;;;23.48;4.82;;;;;;;5.47;90.43;98367.81;5013335;28;20064;-81
2020/12/27 06:42:28;;;;;;;11.27;5.30;;;;;;;5.41;90.56;98409.53;5017642;28;20028;-81
2020/12/27 06:44:54;;;;;;;17.63;4.80;;;;;;;5.34;90.42;98364.78;4948765;29;20039;-80
2020/12/27 06:47:20;;;;;;;11.90;4.05;;;;;;;5.25;90.44;98369.28;5020621;28;20030;-80
2020/12/27 06:49:45;;;;;;;15.55;4.55;;;;;;;5.23;90.43;98378.78;4995791;28;20053;-78
2020/12/27 06:52:20;;;;;;;15.50;3.70;;;;;;;5.21;90.70;98376.41;5011392;28;20029;-78
2020/12/27 06:54:48;;;;;;;22.88;5.15;;;;;;;5.16;90.79;98362.97;5017734;28;20021;-81
2020/12/27 06:57:43;;;;;;;11.50;4.05;;;;;;;5.11;91.11;98354.97;5000831;28;20103;-80
2020/12/27 07:00:30;;;;;;;15.50;4.75;;;;;;;5.06;91.05;98336.16;5021138;28;20006;-80
2020/12/27 07:03:11;;;;;;;13.75;4.40;;;;;;;5.02;91.22;98356.72;5014252;28;20056;-80
2020/12/27 07:05:38;;;;;;;10.20;3.88;;;;;;;5.01;91.04;98361.34;5028080;28;20395;-80
2020/12/27 07:08:05;;;;;;;17.00;4.35;;;;;;;5.00;91.20;98399.44;4995132;28;20462;-81
2020/12/27 07:10:31;;;;;;;14.20;4.05;;;;;;;4.99;91.21;98370.81;4976722;28;20110;-80
2020/12/27 07:13:12;;;;;;;12.38;4.40;;;;;;;4.94;90.88;98322.31;5006954;28;20448;-80
2020/12/27 07:15:53;;;;;;;13.90;3.05;;;;;;;4.94;91.06;98362.81;4999891;28;20368;-81
2020/12/27 07:18:22;;;;;;;10.70;2.85;;;;;;;4.92;91.08;98344.22;4995031;28;20026;-82
2020/12/27 07:20:55;;;;;;;9.45;3.67;;;;;;;4.90;90.82;98365.31;4982957;28;20414;-80
2020/12/27 07:23:30;;;;;;;9.65;3.83;;;;;;;4.87;91.19;98377.50;5002929;28;20073;-81
2020/12/27 07:26:00;;;;;;;5.95;3.15;;;;;;;4.88;90.88;98346.72;4995292;28;20113;-80
2020/12/27 07:28:26;;;;;;;9.52;2.97;;;;;;;4.90;90.77;98317.50;5017310;28;20030;-81
2020/12/27 07:31:04;;;;;;;9.23;2.90;;;;;;;4.93;90.65;98320.72;5012267;28;20078;-82
2020/12/27 07:33:30;;;;;;;11.43;3.45;;;;;;;4.96;90.71;98337.13;5011392;28;20033;-81
2020/12/27 07:36:06;;;;;;;7.82;4.13;;;;;;;4.95;90.56;98332.84;5011934;28;20028;-80
2020/12/27 07:38:53;;;;;;;8.60;3.55;;;;;;;4.97;90.11;98319.84;5011176;28;20025;-82
2020/12/27 07:41:22;;;;;;;9.60;3.95;;;;;;;4.97;90.04;98319.06;5001056;28;20028;-80
2020/12/27 07:43:49;;;;;;;12.20;4.40;;;;;;;4.98;89.84;98291.75;4994706;28;20084;-81
2020/12/27 07:46:16;;;;;;;9.02;3.45;;;;;;;5.00;89.76;98310.34;5013411;28;20022;-82
2020/12/27 07:48:41;;;;;;;7.55;4.32;;;;;;;4.98;90.07;98302.53;4994083;28;20041;-82
2020/12/27 07:51:17;;;;;;;13.07;4.20;;;;;;;4.99;89.76;98273.63;5012982;28;20017;-81
2020/12/27 07:53:46;;;;;;;13.20;5.15;;;;;;;5.00;89.96;98350.84;5012450;28;20037;-82
2020/12/27 07:56:22;;;;;;;20.77;6.05;;;;;;;5.02;90.03;98313.53;4995229;28;20014;-81
2020/12/27 07:59:08;;;;;;;10.98;5.07;;;;;;;5.04;89.93;98281.63;5010707;28;20033;-81
2020/12/27 08:01:34;;;;;;;14.10;4.38;;;;;;;5.05;89.44;98275.97;5014260;28;20080;-82
2020/12/27 08:04:01;;;;;;;15.40;5.07;;;;;;;5.04;89.59;98246.53;5010854;28;20022;-81
2020/12/27 08:06:28;;;;;;;11.15;4.88;;;;;;;5.02;89.45;98270.34;5011889;28;20110;-82
2020/12/27 08:09:00;;;;;;;21.35;4.05;;;;;;;5.00;89.39;98256.34;5011628;28;20084;-82
2020/12/27 08:11:25;;;;;;;11.52;4.25;;;;;;;5.00;89.49;98294.16;5011761;28;20475;-80
2020/12/27 08:13:55;;;;;;;10.63;4.05;;;;;;;4.99;89.58;98260.13;5010869;28;20109;-82
2020/12/27 08:16:20;;;;;;;9.52;3.70;;;;;;;4.96;89.46;98255.34;5011385;28;20439;-81
2020/12/27 08:18:46;;;;;;;12.48;4.40;;;;;;;4.97;89.75;98236.16;5010360;28;20052;-82
2020/12/27 08:21:19;;;;;;;19.58;4.63;;;;;;;4.98;89.82;98262.03;5011541;28;20018;-81
2020/12/27 08:23:56;;;;;;;6.88;2.83;;;;;;;5.00;89.90;98256.34;5025906;28;20483;-82
2020/12/27 08:26:21;;;;;;;9.63;2.97;;;;;;;4.99;89.72;98225.88;5032364;28;20021;-82
2020/12/27 08:28:47;;;;;;;8.85;3.83;;;;;;;5.00;89.88;98237.47;5013934;28;20041;-82
2020/12/27 08:31:23;;;;;;;9.80;3.50;;;;;;;5.00;89.72;98273.34;4998355;28;20018;-82
2020/12/27 08:33:49;;;;;;;17.75;4.53;;;;;;;5.01;89.59;98222.84;5030305;28;20028;-83
2020/12/27 08:36:20;;;;;;;18.08;4.53;;;;;;;5.00;89.34;98226.66;5014611;28;20013;-82
2020/12/27 08:38:53;;;;;;;10.47;3.80;;;;;;;5.01;89.51;98274.94;4997559;28;20033;-82
2020/12/27 08:41:28;;;;;;;16.20;4.07;;;;;;;4.99;89.63;98298.75;5013429;28;20037;-83
2020/12/27 08:43:56;;;;;;;17.65;3.85;;;;;;;4.98;89.65;98204.56;5012670;28;20550;-81
2020/12/27 08:46:22;;;;;;;11.15;3.28;;;;;;;4.98;89.72;98247.75;5031981;28;20129;-82
2020/12/27 08:48:56;;;;;;;5.88;2.95;;;;;;;4.94;89.80;98214.34;5013383;28;20475;-82
2020/12/27 08:51:21;;;;;;;11.55;3.70;;;;;;;4.88;89.69;98232.53;5001151;28;20022;-82
2020/12/27 08:53:47;;;;;;;11.43;3.47;;;;;;;4.87;89.76;98226.34;4997269;28;20479;-82
2020/12/27 08:56:12;;;;;;;13.32;3.60;;;;;;;4.84;89.75;98226.94;5014279;28;20066;-82
2020/12/27 08:58:37;;;;;;;11.00;4.00;;;;;;;4.83;89.71;98217.25;5013954;28;20372;-83
2020/12/27 09:01:06;;;;;;;9.02;3.22;;;;;;;4.80;89.80;98190.03;5014236;28;20025;-82
2020/12/27 09:03:41;;;;;;;9.20;3.42;;;;;;;4.75;89.73;98131.59;4997635;28;20033;-83
2020/12/27 09:06:13;;;;;;;20.52;3.97;;;;;;;4.74;89.75;98183.94;5014254;28;20030;-83
2020/12/27 09:08:38;;;;;;;18.42;3.95;;;;;;;4.72;89.71;98171.84;5012323;28;20044;-83
2020/12/27 09:11:04;;;;;;;9.45;4.10;;;;;;;4.70;89.92;98164.06;5041107;28;20033;-81
2020/12/27 09:13:42;;;;;;;11.88;5.07;;;;;;;4.70;89.90;98158.66;5037166;28;20025;-82
2020/12/27 09:16:07;;;;;;;9.68;3.20;;;;;;;4.72;89.81;98179.94;5027547;28;20018;-82
2020/12/27 09:18:35;;;;;;;9.18;3.35;;;;;;;4.72;89.78;98172.66;5025828;28;20025;-81
2020/12/27 09:21:05;;;;;;;11.50;4.55;;;;;;;4.74;89.66;98181.25;5016485;28;20022;-83
2020/12/27 09:23:31;;;;;;;21.15;4.78;;;;;;;4.77;89.51;98164.44;4997651;28;20198;-83
2020/12/27 09:26:06;;;;;;;14.13;3.92;;;;;;;4.80;89.37;98163.06;5017956;28;20196;-83
2020/12/27 09:28:32;;;;;;;11.65;3.80;;;;;;;4.80;89.29;98142.28;5015788;28;20026;-84
2020/12/27 09:30:59;;;;;;;17.38;4.05;;;;;;;4.82;89.16;98145.47;5035313;28;20013;-83
2020/12/27 09:33:25;;;;;;;13.82;4.95;;;;;;;4.82;89.21;98158.94;5016929;28;20383;-83
2020/12/27 09:35:55;;;;;;;17.80;4.25;;;;;;;4.77;89.07;98144.75;5035351;28;20030;-83
2020/12/27 09:38:27;;;;;;;14.10;4.10;;;;;;;4.73;89.13;98159.97;5013737;28;20021;-83
2020/12/27 09:41:08;;;;;;;11.68;4.00;;;;;;;4.70;89.00;98134.38;5001455;28;20391;-82
2020/12/27 09:43:45;;;;;;;11.00;4.57;;;;;;;4.71;88.99;98127.88;5016718;28;20104;-83
2020/12/27 09:46:11;;;;;;;16.27;3.63;;;;;;;4.75;89.28;98166.66;5035076;28;20075;-82
2020/12/27 09:48:36;;;;;;;11.27;3.75;;;;;;;4.75;88.85;98147.78;5033879;28;20025;-82
2020/12/27 09:51:14;;;;;;;9.20;3.63;;;;;;;4.75;88.79;98120.00;5000857;28;20021;-83
2020/12/27 09:53:40;;;;;;;10.05;3.70;;;;;;;4.75;88.50;98150.47;5015552;28;20117;-82
2020/12/27 09:56:05;;;;;;;21.55;6.25;;;;;;;4.75;88.33;98136.19;5034821;28;20032;-83
2020/12/27 09:58:31;;;;;;;11.48;3.72;;;;;;;4.74;88.39;98127.28;5016508;28;20028;-84
2020/12/27 10:00:56;;;;;;;19.25;4.07;;;;;;;4.73;88.30;98119.50;5034707;28;20025;-83
2020/12/27 10:03:21;;;;;;;16.83;4.05;;;;;;;4.71;88.17;98144.06;5015643;28;20021;-82
2020/12/27 10:05:47;;;;;;;9.57;3.22;;;;;;;4.70;88.18;98153.28;5034626;28;20099;-83
2020/12/27 10:08:12;;;;;;;15.65;4.45;;;;;;;4.66;88.10;98133.38;4996892;28;20037;-83
2020/12/27 10:10:37;;;;;;;15.52;4.60;;;;;;;4.64;88.26;98108.59;5016276;28;20030;-82
2020/12/27 10:13:03;;;;;;;12.23;3.78;;;;;;;4.64;87.97;98130.19;5009743;28;20025;-82
2020/12/27 10:15:28;;;;;;;13.57;3.25;;;;;;;4.64;88.00;98119.41;5033388;28;20032;-81
2020/12/27 10:17:53;;;;;;;9.20;4.20;;;;;;;4.60;87.72;98154.25;5034445;28;20083;-84
2020/12/27 10:20:19;;;;;;;16.50;4.65;;;;;;;4.61;87.75;98111.88;5033349;28;20043;-82
2020/12/27 10:22:44;;;;;;;16.17;4.60;;;;;;;4.60;87.97;98156.16;5034204;28;20422;-82
2020/12/27 10:25:10;;;;;;;14.13;4.18;;;;;;;4.53;87.54;98069.41;5015521;28;20053;-83
2020/12/27 10:27:35;;;;;;;9.10;2.70;;;;;;;4.50;88.09;98088.91;5033414;28;20081;-81
2020/12/27 10:30:02;;;;;;;13.30;3.35;;;;;;;4.49;87.75;98084.63;5033158;28;20025;-83
2020/12/27 10:32:27;;;;;;;9.02;4.03;;;;;;;4.40;87.87;98112.28;5032062;28;20108;-82
2020/12/27 10:34:54;;;;;;;14.98;3.60;;;;;;;4.40;88.09;98120.38;5033124;28;20026;-83
2020/12/27 10:37:19;;;;;;;9.73;3.70;;;;;;;4.40;88.40;98115.00;5033870;28;20403;-83
2020/12/27 10:39:45;;;;;;;11.73;4.72;;;;;;;4.36;88.78;98099.69;5033043;28;20021;-82
2020/12/27 10:42:10;;;;;;;10.93;3.05;;;;;;;4.30;88.55;98087.41;5033879;28;20030;-82
2020/12/27 10:44:35;;;;;;;19.35;3.60;;;;;;;4.30;88.73;98093.59;5015481;28;20033;-83
2020/12/27 10:47:01;;;;;;;10.65;3.10;;;;;;;4.24;88.35;98078.63;5033919;28;20030;-83
2020/12/27 10:49:26;;;;;;;11.05;3.97;;;;;;;4.18;88.26;98088.69;5000284;28;20022;-82
2020/12/27 10:51:52;;;;;;;14.20;3.65;;;;;;;4.16;88.84;98119.75;5016217;28;20026;-83
2020/12/27 10:54:17;;;;;;;14.45;4.20;;;;;;;4.10;88.31;98084.00;5015328;28;20475;-82
2020/12/27 10:56:43;;;;;;;7.88;2.92;;;;;;;4.08;88.62;98096.16;5015351;28;20044;-82
2020/12/27 10:59:10;;;;;;;10.07;3.05;;;;;;;3.98;88.43;98114.13;5015181;28;20017;-83
2020/12/27 11:01:36;;;;;;;21.33;3.80;;;;;;;3.90;88.59;98047.44;5012638;28;20033;-82
2020/12/27 11:04:01;;;;;;;10.75;3.22;;;;;;;3.83;88.51;98079.34;5007972;28;20462;-82
2020/12/27 11:06:32;;;;;;;11.88;3.42;;;;;;;3.77;88.88;98092.13;5015711;28;20033;-82
2020/12/27 11:08:58;;;;;;;12.70;3.80;;;;;;;3.74;88.77;98087.31;5032598;28;21376;-82
2020/12/27 11:11:24;;;;;;;12.32;3.05;;;;;;;3.71;89.41;98079.00;5015579;28;20052;-82
2020/12/27 11:13:49;;;;;;;12.27;4.57;;;;;;;3.67;89.18;98099.56;5028541;28;20028;-82
2020/12/27 11:16:15;;;;;;;15.43;3.53;;;;;;;3.64;89.70;98086.69;4998803;28;20088;-82
2020/12/27 11:18:41;;;;;;;12.73;4.00;;;;;;;3.59;89.40;98094.84;4999121;28;20021;-81
2020/12/27 11:21:06;;;;;;;14.27;4.97;;;;;;;3.59;90.05;98101.03;5031405;28;20025;-82
2020/12/27 11:23:31;;;;;;;12.57;4.07;;;;;;;3.60;89.97;98117.97;5032942;28;20053;-83
2020/12/27 11:25:57;;;;;;;15.50;3.80;;;;;;;3.63;89.94;98063.53;5032347;28;20029;-83
2020/12/27 11:28:22;;;;;;;12.82;4.43;;;;;;;3.62;90.11;98095.06;5015496;28;20032;-82
2020/12/27 11:30:47;;;;;;;17.83;5.70;;;;;;;3.53;90.09;98108.38;5014599;28;20045;-82
2020/12/27 11:33:13;;;;;;;5.05;2.88;;;;;;;3.48;90.11;98095.00;4999008;28;20021;-83
2020/12/27 11:35:38;;;;;;;14.82;3.00;;;;;;;3.45;89.74;98065.97;5031855;28;20475;-81
2020/12/27 11:38:04;;;;;;;14.38;3.83;;;;;;;3.41;89.80;98073.03;5032818;28;20022;-83